Timeline UpdatesTrip UpdatesNews PostsPvt PostsTravel TipsAdmin PostsConv PostsFollowed PostsChat RequestsBlog PostsPNR Posts

Disclaimer
Search
 
 
Fri Aug 1, 2014 13:20:38 ISTHomeTrainsΣChainsAtlasPNRForumGalleryNewsFAQTripsMembersLoginFeedback
No Recent News for this Train
Other Trains in the News **new
Latest...
.
Sun Mar 02, 2014 (11:21AM)
⇐ Return Journey: Train# 11123

11124/Gwalior - Barauni Mail

Sep 26 2013 (10:33AM)
Change Departure Station:
Change Arrival Station:
Post a Train Travel TipPost a Train Travel Tip **new
Post a Comment/Question/Picture/VideoPost a Comment/Question/Picture/Video
Pantry/Catering
✕ NO Pantry Car
✕ NO Catering
Loco/Rake Reversals
JHS/Jhansi Junction (7);
RSA - Rake Sharing
Rake/Coach Composition
Loco-SLR-GS-GS-GS-A1-B1-B2-S1-S2-S3-S4-S5-S6-S7-S8-S9-S10-S11-GS-GS-SLR.
Loco
JHS- WDM-3A
News    PNR    Forum    Time-Table    Availability    Fare Chart    Map    Arr/Dep History    Trips    Gallery    ΣChains    X/O    Timeline    
Travel Time: 25h 20m    46 halts    Distance: 1056 km    Avg Speed: 41 km/hr
Type: Mail/Express
Zone: NCR/North Central
Departs @ 11:45 (Avg 4m late)
Platform# 3
SMTWTFS
Gwalior Junction/GWL 
Arrives @ 13:05 +1 night (Avg 2h 21m late)
Platform# 3
SMTWTFS
Barauni Junction/BJU 

46 halts. 161 intermediate Stations between Gwalior Junction and Barauni Junction

Show ALL intermediate Stations  Show Old Time-Table

#CodeStation NameX/OArrivesAvgDepartsAvgHaltPFDay#KmSpeedElevZoneAddress
1GWL»Gwalior Junction (4)»  -11:45+4310.070214mNCRGwalior, Madhya Pradesh
2DBADabra (3)  12:21+1812:23+192m2142.370204mNCRDabra(District-Gwalior), Madhya Pradesh
3DAADatia (2)  12:49+2412:51+252m--172.744264mNCRDatia, Madhya Pradesh
4JHSJhansi Junction (7)13:25+1913:50+2125m1197.779259mNCRJhansi, Uttar Pradesh
5CGNChirgaon  14:14+3714:16+372m11129.474192mNCRChirgaon, Uttar Pradesh
6MOTHMoth  14:35+4014:37+402m11153.082175mNCRJhansi, Uttar Pradesh
7AITAit Junction (2)X  15:02+4515:04+462m11187.043154mNCROrai(05162-252206), Uttar Pradesh
8ORAIOrai (3)X  15:38+3615:40+412m11211.652139mNCROrai(05162-252206), Uttar Pradesh
9KPIKalpiX  16:18+3216:20+332m11244.460114mNCRKalpi Orai(05162-252206), Uttar Pradesh
10PHNPokhrayan (2)  16:35+3516:37+352m11259.565133mNCRPukhrayan, Uttar Pradesh
11LLRLalpur (1)16:51+4016:53+412m11274.7140137mNCRKanpur Dehat, Uttar Pradesh
12PMNPaman  16:59+4817:01+482m11288.721132mNCRNational Highway 2, Uttar Pradesh
13BZMBhimsen (1)  17:44+1917:46+222m11303.951136mNCRKanpur, Uttar Pradesh
14GOYGovindpuri Junction (2)  17:58+5118:00+502m21314.111129mNCRKANPUR-208 006, Uttar Pradesh
15CNBKanpur Central (10)X  18:20+3818:35+3915m61317.950128mNCRKANPUR-208 001, Uttar Pradesh
16ONUnnao Junction (5)X  18:56+1:0218:58+1:022m31335.343129mNRUnnao, Uttar Pradesh
17LKOLucknow Charbagh (9)X  20:15+5320:25+5610m61389.938123mNR226004, Uttar Pradesh
18BBKBarabanki Junction (4)X  21:10+5821:12+592m21418.458122mNRPin-225001, Uttar Pradesh
19BUWBurhwal Junction (3)  21:40+1:0721:42+1:072m11445.569119mNERBarabanki, Uttar Pradesh
20CLJColonelGanj (2)X  22:11+1:1622:13+1:172m21478.854108mNERGonda, Uttar Pradesh
21GDGonda Junction (3)X  22:45+1:2123:00+1:1215m21507.776110mNERGonda 271001, Uttar Pradesh
22MURMankapur Junction (5)  23:22+1:1723:24+1:182m11535.677104mNERDistrict Gonda, Uttar Pradesh
23MSWMaskanwa (2)23:35+1:2323:37+1:242m11549.7105103mNERChhapaiya Rd, Uttar Pradesh
24BVBabhnan (2)X  23:46+1:3023:48+1:312m11565.368101mNERDistrict- Basti, Uttar Pradesh
25BSTBasti (4)  00:15+1:2800:20+1:285m--2596.18190mNERBasti 272001, Uttar Pradesh
26KLDKhalilabad (3)  00:42+1:3000:44+1:302m--2625.73186mNERKhalilabad- 272175, Uttar Pradesh
27GKPGorakhpur Junction (10)  01:50+1:0302:05+1:0615m32659.65284mNERGorakhpur 273001, Uttar Pradesh
28CCChauri Chaura (2)X  02:33+1:2902:35+1:332m--2684.05384mNERGorakhpur- PinCode:- 273201, Uttar Pradesh
29GBGauri Bazar (2)X  02:46+1:3402:48+1:382m--2693.76082mNERDistrict Deoria- Pincode- 274202, Uttar Pradesh
30DEOSDeoria Sadar (3)X  03:03+1:5003:05+1:572m--2708.75079mNERDeoria- 274001, Uttar Pradesh
31BTTBhatni Junction (5)  03:30+2:0103:35+2:045m--2729.57073mNERDeoria, Uttar Pradesh
32BHTRBhatpar Rani (2)X  03:46+2:0903:48+2:092m--2742.43273mNERDeoria, Uttar Pradesh
33BTKBankata (2)X  04:03+2:0504:05+2:072m--2750.44373mNERDeoria, Uttar Pradesh
34MWMairwa (2)  04:14+2:0704:16+2:082m--2756.92473mNERMairwa, Bihar
35SVSiwan Junction (4)  05:10+1:4105:15+1:435m--2778.24170mNERSiwan, Bihar
36DDADuraundha Junction (3)X  05:41+1:3805:43+1:382m--2796.03964mNERDistt: Siwan, Bihar
37CPRChhapra Junction (6)X  06:50+1:2107:10+1:2320m--2839.46258mNERDistt: Saran, Bihar
38DGADighwara (2)X  07:40+1:4307:42+1:442m--2870.32960mECR06158-281240, Bihar
39SEESonpur Junction (4)X  08:30+1:3108:40+1:4110m--2893.52556mECRSaran, Bihar
40HJPHajipur Junction (3)  08:53+1:3808:55+1:482m22899.06455mECR06224-272230, Bihar
41SAISarai (1)X  09:05+1:5609:07+2:012m12909.63654mECRVaishali, Bihar
42BNRBhagwanpur (2)X  09:22+1:5909:24+2:032m12918.62860mECRBhagwanpur, Bihar
43MFPMuzaffarpur Junction (6)X  10:38+2:0310:48+2:0310m12952.86357mECRMuzaffarpur, Bihar
44DOLDholi (2)  11:12+2:2011:14+2:202m--2977.93852mECRDistt. Muzaffarpur, Bihar
45KRBPKhudiram B PusaX  11:35+2:1811:37+2:182m--2991.32952mECRDistt. Samastipur, Bihar
46SPJSamastipur Junction (9)X  12:05+2:0312:15+2:1610m--21004.98255mECRSamastipur, Bihar
47DSSDalsingh Sarai (2)  12:32+2:3412:34+2:342m221028.15349mECR06278-221238, Bihar
48BJU•Barauni Junction (9)•  13:05+2:21-321055.5-49mECRBegusarai, Bihar
Scroll to Top
Scroll to Bottom